Time;durP1;ratioP1;P1;durP2;ratioP2;P2;SDS_P1;SDS_P2;PMS_P1;PMS_P2;Temp;Humidity;BMP_temperature;BMP_pressure;BME280_temperature;BME280_humidity;BME280_pressure;Samples;Min_cycle;Max_cycle;Signal;HPM_P1;HPM_P2
2023/10/05 00:01:56;;;;;;;3.23;2.13;;;;;;;;;;5050883;28;20513;-86
2023/10/05 00:04:24;;;;;;;5.67;3.07;;;;;;;;;;5072456;28;20496;-86
2023/10/05 00:06:54;;;;;;;4.60;3.07;;;;;;;;;;5061915;28;20524;-85
2023/10/05 00:09:24;;;;;;;4.20;2.80;;;;;;;;;;5054659;28;20515;-86
2023/10/05 00:11:53;;;;;;;3.77;2.50;;;;;;;;;;5054949;28;20468;-85
2023/10/05 00:14:21;;;;;;;3.37;2.20;;;;;;;;;;5054664;28;20477;-86
2023/10/05 00:16:49;;;;;;;3.43;2.40;;;;;;;;;;5054819;28;20450;-86
2023/10/05 00:19:20;;;;;;;3.77;2.30;;;;;;;;;;5054199;28;20488;-85
2023/10/05 00:21:50;;;;;;;4.47;2.67;;;;;;;;;;5047420;28;20543;-86
2023/10/05 00:24:26;;;;;;;5.30;2.57;;;;;;;;;;5054159;28;20878;-86
2023/10/05 00:26:56;;;;;;;3.63;2.43;;;;;;;;;;5054869;28;20477;-87
2023/10/05 00:29:27;;;;;;;3.50;2.00;;;;;;;;;;5054763;28;20469;-86
2023/10/05 00:31:57;;;;;;;3.73;2.73;;;;;;;;;;5054412;28;20531;-86
2023/10/05 00:34:27;;;;;;;4.10;2.93;;;;;;;;;;5054677;28;20477;-86
2023/10/05 00:36:57;;;;;;;3.53;2.53;;;;;;;;;;5055443;28;20450;-86
2023/10/05 00:39:26;;;;;;;3.40;2.13;;;;;;;;;;5055842;28;20524;-86
2023/10/05 00:42:08;;;;;;;3.07;2.63;;;;;;;;;;5055710;28;20865;-86
2023/10/05 00:44:36;;;;;;;4.40;2.80;;;;;;;;;;5055612;28;20501;-85
2023/10/05 00:47:05;;;;;;;3.87;3.03;;;;;;;;;;5055318;28;20484;-85
2023/10/05 00:49:42;;;;;;;3.73;2.60;;;;;;;;;;5056070;28;20480;-85
2023/10/05 00:52:14;;;;;;;4.63;2.67;;;;;;;;;;5055302;28;20473;-85
2023/10/05 00:54:48;;;;;;;4.10;2.70;;;;;;;;;;5077155;23;20531;-55
2023/10/05 00:57:19;;;;;;;3.40;2.60;;;;;;;;;;5068535;28;20817;-55
2023/10/05 00:59:54;;;;;;;5.17;2.77;;;;;;;;;;5062198;28;20475;-55
2023/10/05 01:02:22;;;;;;;6.73;4.30;;;;;;;;;;5067346;28;20883;-54
2023/10/05 01:04:57;;;;;;;5.97;3.83;;;;;;;;;;5050500;28;20450;-56
2023/10/05 01:07:43;;;;;;;5.77;3.20;;;;;;;;;;5050255;28;20541;-55
2023/10/05 01:10:40;;;;;;;9.43;5.40;;;;;;;;;;5050514;28;20547;-54
2023/10/05 01:13:28;;;;;;;4.57;2.70;;;;;;;;;;5050341;28;20826;-55
2023/10/05 01:15:55;;;;;;;4.57;3.20;;;;;;;;;;5050332;28;20445;-55
2023/10/05 01:18:25;;;;;;;3.80;3.07;;;;;;;;;;5050211;28;20495;-55
2023/10/05 01:20:53;;;;;;;5.40;2.73;;;;;;;;;;5049948;28;20492;-54
2023/10/05 01:23:29;;;;;;;4.63;2.67;;;;;;;;;;5050263;28;20817;-54
2023/10/05 01:25:57;;;;;;;6.20;2.77;;;;;;;;;;5050161;28;20495;-54
2023/10/05 01:28:24;;;;;;;4.10;2.80;;;;;;;;;;5049893;28;20446;-54
2023/10/05 01:30:55;;;;;;;4.27;2.70;;;;;;;;;;5050203;28;20548;-54
2023/10/05 01:33:24;;;;;;;4.03;2.97;;;;;;;;;;5050235;28;20450;-54
2023/10/05 01:35:54;;;;;;;4.83;3.00;;;;;;;;;;5061982;28;21038;-54
2023/10/05 01:38:23;;;;;;;3.90;2.73;;;;;;;;;;5067852;28;20502;-54
2023/10/05 01:40:54;;;;;;;6.40;3.27;;;;;;;;;;5067536;28;20471;-55
2023/10/05 01:43:22;;;;;;;4.93;2.77;;;;;;;;;;5067224;28;20448;-54
2023/10/05 01:45:49;;;;;;;4.50;3.07;;;;;;;;;;5050277;28;20485;-54
2023/10/05 01:48:24;;;;;;;5.07;3.37;;;;;;;;;;5049897;28;20476;-55
2023/10/05 01:50:52;;;;;;;4.07;2.70;;;;;;;;;;5064104;28;20464;-54
2023/10/05 01:53:19;;;;;;;4.00;2.73;;;;;;;;;;5051930;28;20502;-55
2023/10/05 01:55:49;;;;;;;5.03;2.83;;;;;;;;;;5051773;28;20435;-54
2023/10/05 01:58:31;;;;;;;3.23;2.40;;;;;;;;;;5051397;28;20449;-56
2023/10/05 02:00:58;;;;;;;4.70;3.03;;;;;;;;;;5049800;28;20469;-54
2023/10/05 02:03:25;;;;;;;4.03;2.60;;;;;;;;;;5049530;28;20445;-56
2023/10/05 02:05:56;;;;;;;4.00;2.80;;;;;;;;;;5050067;28;20489;-54
2023/10/05 02:08:23;;;;;;;6.03;3.43;;;;;;;;;;5050046;28;20532;-54
2023/10/05 02:10:51;;;;;;;3.60;2.80;;;;;;;;;;5049654;28;20461;-54
2023/10/05 02:13:19;;;;;;;3.50;3.00;;;;;;;;;;5049786;28;20858;-57
2023/10/05 02:15:53;;;;;;;6.23;3.10;;;;;;;;;;5050086;28;20449;-56
2023/10/05 02:18:24;;;;;;;4.20;2.70;;;;;;;;;;5049613;28;20847;-56
2023/10/05 02:20:56;;;;;;;5.03;3.30;;;;;;;;;;5049351;28;20986;-56
2023/10/05 02:23:25;;;;;;;6.50;3.80;;;;;;;;;;5049845;28;20445;-55
2023/10/05 02:25:57;;;;;;;6.33;2.93;;;;;;;;;;5049801;28;20538;-56
2023/10/05 02:28:26;;;;;;;6.70;4.20;;;;;;;;;;5049488;28;20442;-55
2023/10/05 02:31:00;;;;;;;6.17;3.60;;;;;;;;;;5048720;28;20927;-55
2023/10/05 02:33:30;;;;;;;5.00;3.43;;;;;;;;;;5049526;28;20797;-56
2023/10/05 02:36:11;;;;;;;5.30;3.03;;;;;;;;;;5062925;28;20444;-55
2023/10/05 02:38:38;;;;;;;5.27;3.50;;;;;;;;;;5066619;28;20455;-56
2023/10/05 02:41:08;;;;;;;4.57;3.13;;;;;;;;;;5067488;28;21054;-56
2023/10/05 02:43:40;;;;;;;3.67;2.80;;;;;;;;;;5064831;28;20841;-56
2023/10/05 02:46:11;;;;;;;4.50;2.80;;;;;;;;;;5049370;28;20477;-57
2023/10/05 02:48:41;;;;;;;4.10;2.77;;;;;;;;;;5052563;28;20456;-55
2023/10/05 02:51:10;;;;;;;5.20;3.13;;;;;;;;;;5061443;28;20461;-55
2023/10/05 02:53:41;;;;;;;4.50;3.50;;;;;;;;;;5052129;28;20456;-56
2023/10/05 02:56:20;;;;;;;5.53;3.20;;;;;;;;;;5055021;28;20515;-55
2023/10/05 02:58:51;;;;;;;4.53;3.50;;;;;;;;;;5048493;28;20472;-55
2023/10/05 03:01:18;;;;;;;4.93;2.97;;;;;;;;;;5052590;28;20533;-57
2023/10/05 03:03:45;;;;;;;5.53;3.67;;;;;;;;;;5052642;28;20476;-56
2023/10/05 03:06:13;;;;;;;4.87;3.30;;;;;;;;;;5051848;28;20515;-57
2023/10/05 03:08:41;;;;;;;5.53;3.40;;;;;;;;;;5053142;28;20480;-55
2023/10/05 03:11:08;;;;;;;4.93;2.73;;;;;;;;;;5052567;28;20497;-56
2023/10/05 03:13:38;;;;;;;4.13;3.20;;;;;;;;;;5052586;28;20453;-55
2023/10/05 03:16:09;;;;;;;9.67;4.00;;;;;;;;;;5052670;28;20438;-57
2023/10/05 03:18:38;;;;;;;4.50;2.97;;;;;;;;;;5052388;28;20458;-55
2023/10/05 03:21:11;;;;;;;3.77;3.00;;;;;;;;;;5052253;28;20530;-54
2023/10/05 03:23:40;;;;;;;5.20;4.13;;;;;;;;;;5052726;28;20836;-55
2023/10/05 03:26:08;;;;;;;3.30;3.00;;;;;;;;;;5052401;28;20542;-55
2023/10/05 03:28:36;;;;;;;11.07;3.50;;;;;;;;;;5052315;28;20495;-55
2023/10/05 03:31:06;;;;;;;3.50;2.43;;;;;;;;;;5051955;28;20527;-55
2023/10/05 03:33:36;;;;;;;5.20;3.40;;;;;;;;;;5052600;28;20526;-55
2023/10/05 03:36:06;;;;;;;6.70;3.60;;;;;;;;;;5052470;28;20441;-55
2023/10/05 03:38:36;;;;;;;3.73;3.07;;;;;;;;;;5053961;28;20462;-56
2023/10/05 03:41:04;;;;;;;4.17;3.00;;;;;;;;;;5053032;28;20465;-56
2023/10/05 03:43:32;;;;;;;3.87;2.73;;;;;;;;;;5052638;28;20445;-55
2023/10/05 03:46:07;;;;;;;4.33;3.13;;;;;;;;;;5053085;28;20524;-55
2023/10/05 03:48:38;;;;;;;5.23;3.53;;;;;;;;;;5051922;28;20436;-56
2023/10/05 03:51:15;;;;;;;4.37;3.23;;;;;;;;;;5052394;28;20469;-55
2023/10/05 03:53:42;;;;;;;4.20;3.20;;;;;;;;;;5053430;28;20455;-56
2023/10/05 03:56:12;;;;;;;3.63;3.07;;;;;;;;;;5053108;28;20530;-55
2023/10/05 03:58:40;;;;;;;3.90;3.20;;;;;;;;;;5051844;28;20502;-54
2023/10/05 04:01:10;;;;;;;3.30;2.60;;;;;;;;;;5051114;28;20564;-55
2023/10/05 04:03:40;;;;;;;4.10;3.27;;;;;;;;;;5050171;28;21637;-55
2023/10/05 04:06:17;;;;;;;4.00;3.20;;;;;;;;;;5050065;28;20446;-56
2023/10/05 04:08:45;;;;;;;3.33;2.63;;;;;;;;;;5050189;28;20448;-55
2023/10/05 04:11:13;;;;;;;4.20;3.10;;;;;;;;;;5049722;28;20538;-55
2023/10/05 04:13:40;;;;;;;4.50;4.10;;;;;;;;;;5050245;28;20441;-55
2023/10/05 04:16:09;;;;;;;10.40;8.33;;;;;;;;;;5050124;28;20503;-55
2023/10/05 04:18:38;;;;;;;9.37;7.13;;;;;;;;;;5050336;28;20442;-55
2023/10/05 04:21:07;;;;;;;12.17;9.10;;;;;;;;;;5050901;28;20465;-55
2023/10/05 04:23:34;;;;;;;6.73;4.57;;;;;;;;;;5051458;28;20535;-56
2023/10/05 04:26:01;;;;;;;6.50;3.30;;;;;;;;;;5051624;28;20433;-55
2023/10/05 04:28:33;;;;;;;4.37;3.43;;;;;;;;;;5051068;28;20477;-54
2023/10/05 04:31:00;;;;;;;6.17;2.80;;;;;;;;;;5050947;28;20461;-56
2023/10/05 04:33:28;;;;;;;4.53;4.10;;;;;;;;;;5051258;28;20449;-55
2023/10/05 04:35:56;;;;;;;5.93;3.03;;;;;;;;;;5063717;28;20452;-55
2023/10/05 04:38:25;;;;;;;5.47;4.30;;;;;;;;;;5068656;28;20918;-55
2023/10/05 04:40:52;;;;;;;8.27;4.83;;;;;;;;;;5069312;28;20468;-55
2023/10/05 04:43:21;;;;;;;5.30;4.50;;;;;;;;;;5053507;28;20817;-55
2023/10/05 04:45:51;;;;;;;6.60;6.00;;;;;;;;;;5050828;28;20457;-56
2023/10/05 04:48:19;;;;;;;5.87;4.60;;;;;;;;;;5050190;28;20485;-55
2023/10/05 04:50:49;;;;;;;4.33;3.93;;;;;;;;;;5076140;22;20491;-55
2023/10/05 04:53:17;;;;;;;5.70;3.33;;;;;;;;;;5090524;28;20512;-55
2023/10/05 04:55:46;;;;;;;3.43;3.00;;;;;;;;;;5091061;28;20450;-57
2023/10/05 04:58:23;;;;;;;3.97;2.87;;;;;;;;;;5091070;28;20450;-56
2023/10/05 05:01:04;;;;;;;5.00;2.90;;;;;;;;;;5090982;28;20468;-55
2023/10/05 05:03:48;;;;;;;4.40;3.00;;;;;;;;;;5090788;28;20448;-59
2023/10/05 05:06:15;;;;;;;3.73;2.80;;;;;;;;;;5090839;28;20444;-57
2023/10/05 05:08:44;;;;;;;6.20;3.00;;;;;;;;;;5090991;28;20856;-55
2023/10/05 05:11:19;;;;;;;6.30;2.77;;;;;;;;;;5090520;28;20464;-55
2023/10/05 05:13:47;;;;;;;4.03;2.93;;;;;;;;;;5090916;28;21020;-56
2023/10/05 05:16:16;;;;;;;4.90;3.53;;;;;;;;;;5090049;28;20522;-55
2023/10/05 05:18:43;;;;;;;4.10;3.20;;;;;;;;;;5090618;28;20467;-56
2023/10/05 05:21:11;;;;;;;4.20;3.33;;;;;;;;;;5090339;28;20456;-58
2023/10/05 05:23:41;;;;;;;5.00;3.97;;;;;;;;;;5090680;28;20540;-57
2023/10/05 05:26:11;;;;;;;4.30;3.90;;;;;;;;;;5088528;28;20993;-55
2023/10/05 05:28:42;;;;;;;5.67;4.47;;;;;;;;;;5090399;28;20866;-55
2023/10/05 05:31:14;;;;;;;6.07;4.47;;;;;;;;;;5089880;28;20495;-55
2023/10/05 05:33:44;;;;;;;4.63;3.60;;;;;;;;;;5090260;28;20458;-55
2023/10/05 05:36:12;;;;;;;5.80;3.93;;;;;;;;;;5089834;28;20949;-57
2023/10/05 05:38:40;;;;;;;5.83;3.73;;;;;;;;;;5087097;28;20449;-55
2023/10/05 05:41:15;;;;;;;8.70;3.60;;;;;;;;;;5085796;28;21012;-57
2023/10/05 05:43:44;;;;;;;5.83;4.07;;;;;;;;;;5090260;28;20517;-55
2023/10/05 05:46:13;;;;;;;6.93;4.10;;;;;;;;;;5090236;28;20949;-57
2023/10/05 05:48:42;;;;;;;4.10;3.50;;;;;;;;;;5090139;28;20510;-57
2023/10/05 05:51:14;;;;;;;5.43;3.77;;;;;;;;;;5089362;28;20554;-56
2023/10/05 05:53:43;;;;;;;6.63;3.80;;;;;;;;;;5089997;28;20961;-55
2023/10/05 05:56:16;;;;;;;4.53;3.57;;;;;;;;;;5090290;28;20451;-55
2023/10/05 05:58:46;;;;;;;5.63;3.77;;;;;;;;;;5090117;28;20439;-59
2023/10/05 06:01:15;;;;;;;5.03;4.37;;;;;;;;;;5087042;28;20494;-56
2023/10/05 06:03:44;;;;;;;6.63;3.80;;;;;;;;;;5083690;28;20534;-57
2023/10/05 06:06:11;;;;;;;5.13;4.10;;;;;;;;;;5090177;28;20522;-55
2023/10/05 06:08:40;;;;;;;4.77;4.10;;;;;;;;;;5089789;28;20487;-55
2023/10/05 06:11:08;;;;;;;7.80;6.10;;;;;;;;;;5089895;28;20471;-55
2023/10/05 06:13:37;;;;;;;9.10;6.43;;;;;;;;;;5089749;28;20447;-55
2023/10/05 06:16:09;;;;;;;7.70;6.40;;;;;;;;;;5090015;28;20535;-57
2023/10/05 06:18:37;;;;;;;8.13;5.00;;;;;;;;;;5090234;28;20488;-55
2023/10/05 06:21:04;;;;;;;5.17;4.63;;;;;;;;;;5089764;28;20502;-56
2023/10/05 06:23:33;;;;;;;8.37;4.33;;;;;;;;;;5088231;28;20462;-57
2023/10/05 06:26:01;;;;;;;7.43;4.87;;;;;;;;;;5089911;28;20450;-55
2023/10/05 06:28:28;;;;;;;5.60;4.63;;;;;;;;;;5092109;28;20566;-55
2023/10/05 06:30:56;;;;;;;5.83;4.60;;;;;;;;;;5093594;28;20515;-58
2023/10/05 06:33:25;;;;;;;6.00;3.73;;;;;;;;;;5086277;28;20452;-55
2023/10/05 06:35:54;;;;;;;8.07;4.50;;;;;;;;;;5093649;28;20921;-55
2023/10/05 06:38:22;;;;;;;6.90;4.00;;;;;;;;;;5093992;28;20918;-55
2023/10/05 06:40:50;;;;;;;5.40;4.27;;;;;;;;;;5093050;28;20528;-58
2023/10/05 06:43:17;;;;;;;4.80;4.20;;;;;;;;;;5093937;28;20493;-55
2023/10/05 06:45:45;;;;;;;7.20;3.90;;;;;;;;;;5093371;28;20954;-55
2023/10/05 06:48:14;;;;;;;7.10;3.90;;;;;;;;;;5093478;28;20571;-57
2023/10/05 06:50:44;;;;;;;8.40;4.60;;;;;;;;;;5091850;28;20497;-55
2023/10/05 06:53:11;;;;;;;9.30;5.83;;;;;;;;;;5091822;28;20439;-54
2023/10/05 06:55:39;;;;;;;13.40;6.30;;;;;;;;;;5091380;28;20531;-55
2023/10/05 06:58:07;;;;;;;6.33;5.13;;;;;;;;;;5092011;28;20494;-57
2023/10/05 07:00:34;;;;;;;5.10;4.40;;;;;;;;;;5091439;28;20463;-56
2023/10/05 07:03:06;;;;;;;8.90;5.30;;;;;;;;;;5089800;28;20439;-55
2023/10/05 07:05:33;;;;;;;8.10;5.67;;;;;;;;;;5089708;28;20455;-57
2023/10/05 07:08:02;;;;;;;7.40;5.30;;;;;;;;;;5083400;28;20480;-56
2023/10/05 07:10:29;;;;;;;5.03;4.37;;;;;;;;;;5086231;28;20513;-55
2023/10/05 07:12:58;;;;;;;6.70;5.03;;;;;;;;;;5081934;28;20448;-55
2023/10/05 07:15:25;;;;;;;5.07;4.33;;;;;;;;;;5084371;28;20452;-55
2023/10/05 07:17:53;;;;;;;4.60;3.77;;;;;;;;;;5090448;28;20508;-56
2023/10/05 07:20:20;;;;;;;6.70;4.23;;;;;;;;;;5086621;28;20468;-55
2023/10/05 07:22:48;;;;;;;4.97;4.37;;;;;;;;;;5081281;28;20497;-57
2023/10/05 07:25:18;;;;;;;5.93;4.23;;;;;;;;;;5078876;28;20503;-58
2023/10/05 07:27:45;;;;;;;5.70;3.70;;;;;;;;;;5083946;28;20479;-55
2023/10/05 07:30:13;;;;;;;6.70;4.50;;;;;;;;;;5079854;28;20490;-59
2023/10/05 07:32:41;;;;;;;4.63;4.03;;;;;;;;;;5079592;28;20947;-54
2023/10/05 07:35:12;;;;;;;7.30;3.90;;;;;;;;;;5083297;28;20520;-57
2023/10/05 07:37:39;;;;;;;8.27;4.30;;;;;;;;;;5080422;28;20485;-56
2023/10/05 07:40:07;;;;;;;4.97;4.20;;;;;;;;;;5079287;28;20440;-59
2023/10/05 07:42:37;;;;;;;4.80;4.30;;;;;;;;;;5084622;28;20523;-55
2023/10/05 07:45:07;;;;;;;5.00;4.10;;;;;;;;;;5084716;28;20433;-58
2023/10/05 07:47:34;;;;;;;5.53;4.20;;;;;;;;;;5083921;28;20486;-55
2023/10/05 07:50:02;;;;;;;5.43;3.97;;;;;;;;;;5083753;28;20552;-54
2023/10/05 07:52:30;;;;;;;7.57;4.60;;;;;;;;;;5078976;28;20823;-55
2023/10/05 07:54:58;;;;;;;6.40;4.43;;;;;;;;;;5077878;28;20453;-55
2023/10/05 07:57:25;;;;;;;6.20;4.40;;;;;;;;;;5083973;28;20509;-55
2023/10/05 07:59:54;;;;;;;5.33;4.83;;;;;;;;;;5080821;28;20472;-55
2023/10/05 08:02:21;;;;;;;6.40;3.70;;;;;;;;;;5077682;28;20543;-56
2023/10/05 08:04:48;;;;;;;5.43;4.10;;;;;;;;;;5080171;28;20524;-57
2023/10/05 08:07:16;;;;;;;6.67;4.30;;;;;;;;;;5074905;28;20445;-57
2023/10/05 08:09:43;;;;;;;4.77;4.33;;;;;;;;;;5078569;28;21032;-55
2023/10/05 08:12:12;;;;;;;4.10;3.50;;;;;;;;;;5081471;28;20975;-55
2023/10/05 08:14:40;;;;;;;7.40;4.20;;;;;;;;;;5082265;28;20444;-55
2023/10/05 08:17:08;;;;;;;6.30;3.53;;;;;;;;;;5074602;28;20505;-55
2023/10/05 08:19:36;;;;;;;8.20;3.27;;;;;;;;;;5077325;28;20788;-55
2023/10/05 08:22:03;;;;;;;4.90;3.57;;;;;;;;;;5081105;28;20505;-56
2023/10/05 08:24:31;;;;;;;4.80;3.77;;;;;;;;;;5082622;28;20436;-54
2023/10/05 08:26:58;;;;;;;5.80;4.50;;;;;;;;;;5079677;28;20444;-55
2023/10/05 08:29:27;;;;;;;5.27;3.90;;;;;;;;;;5075876;28;20511;-55
2023/10/05 08:31:55;;;;;;;5.00;3.70;;;;;;;;;;5075915;28;20589;-59
2023/10/05 08:34:25;;;;;;;5.30;3.40;;;;;;;;;;5071598;28;20501;-55
2023/10/05 08:36:54;;;;;;;7.43;4.63;;;;;;;;;;5072716;28;20544;-57
2023/10/05 08:39:25;;;;;;;4.97;3.83;;;;;;;;;;5072180;28;20445;-55
2023/10/05 08:41:54;;;;;;;7.17;4.70;;;;;;;;;;5075392;28;20464;-55
2023/10/05 08:44:27;;;;;;;7.07;5.10;;;;;;;;;;5066936;28;20498;-56
2023/10/05 08:46:55;;;;;;;7.23;5.30;;;;;;;;;;5070011;28;20610;-58
2023/10/05 08:49:24;;;;;;;5.20;4.70;;;;;;;;;;5074359;28;20562;-56
2023/10/05 08:51:52;;;;;;;7.37;4.47;;;;;;;;;;5070077;28;20476;-57
2023/10/05 08:54:27;;;;;;;7.03;4.60;;;;;;;;;;5068661;28;20555;-59
2023/10/05 08:56:57;;;;;;;6.03;4.57;;;;;;;;;;5071034;28;20494;-57
2023/10/05 08:59:26;;;;;;;6.70;4.47;;;;;;;;;;5071090;28;20447;-56
2023/10/05 09:01:55;;;;;;;4.93;3.67;;;;;;;;;;5066650;28;20471;-55
2023/10/05 09:04:29;;;;;;;6.07;4.37;;;;;;;;;;5067119;28;20819;-56
2023/10/05 09:06:59;;;;;;;5.43;4.30;;;;;;;;;;5068996;28;20459;-56
2023/10/05 09:09:37;;;;;;;5.07;4.17;;;;;;;;;;5069611;28;20895;-57
2023/10/05 09:12:22;;;;;;;6.10;3.63;;;;;;;;;;5069769;28;20826;-56
2023/10/05 09:15:04;;;;;;;5.00;4.20;;;;;;;;;;5075426;28;20471;-56
2023/10/05 09:17:34;;;;;;;6.33;4.33;;;;;;;;;;5070040;28;20496;-55
2023/10/05 09:20:17;;;;;;;5.37;3.63;;;;;;;;;;5069973;28;20441;-54
2023/10/05 09:22:51;;;;;;;4.23;3.40;;;;;;;;;;5075910;28;20527;-55
2023/10/05 09:25:26;;;;;;;4.50;3.67;;;;;;;;;;5071834;28;20451;-54
2023/10/05 09:27:55;;;;;;;7.50;4.20;;;;;;;;;;5071140;28;20681;-56
2023/10/05 09:30:29;;;;;;;5.70;3.47;;;;;;;;;;5068215;28;20471;-55
2023/10/05 09:33:07;;;;;;;7.10;3.43;;;;;;;;;;5076852;28;20436;-55
2023/10/05 09:35:34;;;;;;;7.33;4.00;;;;;;;;;;5069582;28;20468;-55
2023/10/05 09:38:05;;;;;;;5.97;3.30;;;;;;;;;;5072524;28;20823;-57
2023/10/05 09:40:33;;;;;;;7.90;3.63;;;;;;;;;;5069568;28;20566;-55
2023/10/05 09:43:05;;;;;;;5.43;3.43;;;;;;;;;;5071911;28;20431;-58
2023/10/05 09:45:33;;;;;;;4.60;3.70;;;;;;;;;;5066521;28;20459;-57
2023/10/05 09:48:02;;;;;;;4.53;3.10;;;;;;;;;;5071504;28;20942;-56
2023/10/05 09:50:30;;;;;;;4.90;3.83;;;;;;;;;;5074427;28;20467;-56
2023/10/05 09:53:02;;;;;;;6.10;3.57;;;;;;;;;;5068177;28;20443;-56
2023/10/05 09:55:31;;;;;;;5.27;3.33;;;;;;;;;;5068603;28;20453;-55
2023/10/05 09:58:05;;;;;;;7.63;3.60;;;;;;;;;;5068968;28;20532;-57
2023/10/05 10:03:14;;;;;;;4.83;3.00;;;;;;;;;;5069654;28;20462;-56
2023/10/05 10:05:43;;;;;;;4.53;3.80;;;;;;;;;;5072766;28;21072;-56
2023/10/05 10:08:13;;;;;;;5.33;3.67;;;;;;;;;;5072828;28;20436;-57
2023/10/05 10:10:49;;;;;;;4.63;3.40;;;;;;;;;;5072296;28;20506;-56
2023/10/05 10:13:16;;;;;;;4.90;2.90;;;;;;;;;;5073287;28;20950;-55
2023/10/05 10:15:46;;;;;;;4.73;3.43;;;;;;;;;;5070516;28;20471;-57
2023/10/05 10:18:15;;;;;;;5.07;3.40;;;;;;;;;;5071464;28;20993;-58
2023/10/05 10:20:47;;;;;;;7.07;3.53;;;;;;;;;;5071650;28;20557;-55
2023/10/05 10:23:19;;;;;;;3.90;3.23;;;;;;;;;;5072923;28;20444;-56
2023/10/05 10:25:50;;;;;;;4.90;3.30;;;;;;;;;;5079185;28;20499;-57
2023/10/05 10:28:20;;;;;;;6.50;3.40;;;;;;;;;;5074530;28;20451;-54
2023/10/05 10:31:13;;;;;;;4.60;3.60;;;;;;;;;;5070443;28;20904;-56
2023/10/05 10:33:43;;;;;;;4.80;3.57;;;;;;;;;;5070925;28;20440;-58
2023/10/05 10:36:19;;;;;;;4.57;3.33;;;;;;;;;;5071429;28;20476;-56
2023/10/05 10:38:51;;;;;;;4.30;3.70;;;;;;;;;;5073724;28;20880;-57
2023/10/05 10:41:22;;;;;;;3.90;3.13;;;;;;;;;;5070221;28;20490;-55
2023/10/05 10:43:56;;;;;;;5.03;3.60;;;;;;;;;;5077599;28;20895;-55
2023/10/05 10:46:29;;;;;;;3.97;3.30;;;;;;;;;;5072739;28;20479;-55
2023/10/05 10:49:00;;;;;;;3.80;2.73;;;;;;;;;;5077134;28;20484;-58
2023/10/05 10:51:31;;;;;;;4.70;3.30;;;;;;;;;;5123510;23;20486;-56
2023/10/05 10:53:59;;;;;;;4.30;2.70;;;;;;;;;;5082964;28;20468;-55
2023/10/05 10:56:34;;;;;;;3.23;2.43;;;;;;;;;;5088079;28;20534;-55
2023/10/05 10:59:10;;;;;;;3.77;2.67;;;;;;;;;;5071924;28;20455;-56
2023/10/05 11:01:44;;;;;;;3.87;3.03;;;;;;;;;;5059962;28;20527;-57
2023/10/05 11:04:23;;;;;;;5.93;3.07;;;;;;;;;;5067974;28;20837;-55
2023/10/05 11:06:56;;;;;;;3.73;3.10;;;;;;;;;;5083584;28;20530;-56
2023/10/05 11:09:30;;;;;;;5.83;3.63;;;;;;;;;;5088268;28;20479;-57
2023/10/05 11:12:08;;;;;;;3.93;2.30;;;;;;;;;;5089340;28;20839;-56
2023/10/05 11:14:37;;;;;;;4.63;3.27;;;;;;;;;;5060006;28;20450;-56
2023/10/05 11:17:11;;;;;;;4.50;3.10;;;;;;;;;;5066972;28;20813;-56
2023/10/05 11:19:40;;;;;;;5.20;3.00;;;;;;;;;;5086640;28;20518;-56
2023/10/05 11:22:12;;;;;;;4.43;3.10;;;;;;;;;;5088257;28;21034;-55
2023/10/05 11:24:59;;;;;;;4.70;2.97;;;;;;;;;;5087161;28;20988;-56
2023/10/05 11:27:36;;;;;;;4.43;3.30;;;;;;;;;;5086830;28;20542;-56
2023/10/05 11:30:05;;;;;;;3.73;2.80;;;;;;;;;;5085976;28;20475;-57
2023/10/05 11:32:33;;;;;;;4.70;3.63;;;;;;;;;;5087287;28;20924;-55
2023/10/05 11:35:04;;;;;;;6.33;3.50;;;;;;;;;;5088137;28;20431;-56
2023/10/05 11:37:32;;;;;;;5.33;3.70;;;;;;;;;;5072093;28;20611;-54
2023/10/05 11:40:04;;;;;;;5.37;3.43;;;;;;;;;;5069267;28;20528;-57
2023/10/05 11:42:37;;;;;;;5.50;3.30;;;;;;;;;;5060384;28;20457;-55
2023/10/05 11:45:16;;;;;;;9.33;3.80;;;;;;;;;;5064840;28;20550;-55
2023/10/05 11:47:48;;;;;;;4.50;3.03;;;;;;;;;;5071644;28;20571;-55
2023/10/05 11:50:24;;;;;;;4.43;3.57;;;;;;;;;;5065785;28;20574;-54
2023/10/05 11:52:53;;;;;;;4.90;3.43;;;;;;;;;;5066034;28;20471;-55
2023/10/05 11:55:20;;;;;;;3.90;3.03;;;;;;;;;;5064878;28;20536;-55
2023/10/05 11:57:52;;;;;;;4.47;3.10;;;;;;;;;;5068904;28;20925;-56
2023/10/05 12:00:19;;;;;;;4.93;3.00;;;;;;;;;;5063184;28;20913;-54
2023/10/05 12:02:47;;;;;;;3.50;2.67;;;;;;;;;;5068771;28;20483;-55
2023/10/05 12:05:14;;;;;;;4.03;3.07;;;;;;;;;;5065061;28;20528;-54
2023/10/05 12:07:45;;;;;;;4.60;3.10;;;;;;;;;;5069144;28;20559;-55
2023/10/05 12:10:13;;;;;;;6.30;3.30;;;;;;;;;;5064688;28;20483;-55
2023/10/05 12:12:41;;;;;;;5.47;3.30;;;;;;;;;;5069294;28;20832;-56
2023/10/05 12:15:17;;;;;;;4.40;3.07;;;;;;;;;;5065895;28;20464;-56
2023/10/05 12:17:45;;;;;;;5.23;3.50;;;;;;;;;;5065782;28;20439;-55
2023/10/05 12:20:14;;;;;;;6.00;3.90;;;;;;;;;;5064895;28;20444;-56
2023/10/05 12:22:43;;;;;;;4.47;2.90;;;;;;;;;;5069081;28;20459;-55
2023/10/05 12:25:14;;;;;;;4.97;3.47;;;;;;;;;;5064768;28;20437;-55
2023/10/05 12:27:42;;;;;;;6.07;3.73;;;;;;;;;;5068790;28;21034;-56
2023/10/05 12:30:12;;;;;;;4.50;3.17;;;;;;;;;;5058948;28;20504;-56
2023/10/05 12:32:40;;;;;;;3.70;3.30;;;;;;;;;;5086084;28;20846;-55
2023/10/05 12:35:13;;;;;;;5.33;4.43;;;;;;;;;;5082079;28;20448;-56
2023/10/05 12:37:40;;;;;;;5.00;3.07;;;;;;;;;;5061449;28;20470;-55
2023/10/05 12:40:18;;;;;;;5.63;3.53;;;;;;;;;;5071168;28;20545;-56
2023/10/05 12:42:51;;;;;;;4.00;3.53;;;;;;;;;;5074388;28;20500;-56
2023/10/05 12:45:22;;;;;;;4.07;3.30;;;;;;;;;;5080510;28;20477;-57
2023/10/05 12:47:52;;;;;;;6.17;3.50;;;;;;;;;;5082824;28;20456;-56
2023/10/05 12:50:21;;;;;;;4.67;3.23;;;;;;;;;;5086208;28;20506;-55
2023/10/05 12:52:51;;;;;;;3.50;3.13;;;;;;;;;;5083221;28;20917;-57
2023/10/05 12:55:18;;;;;;;4.30;3.50;;;;;;;;;;5074229;28;20445;-55
2023/10/05 12:57:50;;;;;;;4.60;2.87;;;;;;;;;;5081582;28;20450;-56
2023/10/05 13:00:21;;;;;;;3.90;3.30;;;;;;;;;;5076601;28;20975;-55
2023/10/05 13:02:52;;;;;;;5.03;3.70;;;;;;;;;;5086951;28;20969;-54
2023/10/05 13:05:23;;;;;;;4.80;3.47;;;;;;;;;;5068285;28;20561;-54
2023/10/05 13:07:53;;;;;;;4.50;3.60;;;;;;;;;;5068604;28;20448;-56
2023/10/05 13:10:27;;;;;;;4.60;3.40;;;;;;;;;;5081612;28;20682;-55
2023/10/05 13:12:55;;;;;;;4.83;3.67;;;;;;;;;;5078203;28;20436;-55
2023/10/05 13:15:25;;;;;;;4.47;3.37;;;;;;;;;;5079822;28;20484;-56
2023/10/05 13:17:57;;;;;;;3.87;3.33;;;;;;;;;;5074434;28;20521;-55
2023/10/05 13:20:26;;;;;;;5.97;3.77;;;;;;;;;;5070262;28;20447;-55
2023/10/05 13:22:54;;;;;;;5.80;3.30;;;;;;;;;;5079762;28;20474;-55
2023/10/05 13:25:26;;;;;;;4.20;3.60;;;;;;;;;;5085702;28;20446;-56
2023/10/05 13:27:55;;;;;;;3.80;3.50;;;;;;;;;;5083212;28;20514;-56
2023/10/05 13:30:27;;;;;;;6.23;4.00;;;;;;;;;;5069028;28;20603;-56
2023/10/05 13:33:01;;;;;;;6.27;3.80;;;;;;;;;;5083161;28;21118;-55
2023/10/05 13:35:32;;;;;;;6.20;3.40;;;;;;;;;;5076887;28;20449;-55
2023/10/05 13:38:06;;;;;;;7.23;3.97;;;;;;;;;;5074248;28;20551;-55
2023/10/05 13:40:35;;;;;;;5.10;3.70;;;;;;;;;;5063353;28;20799;-55
2023/10/05 13:43:03;;;;;;;7.00;3.50;;;;;;;;;;5060825;28;20960;-56
2023/10/05 13:45:33;;;;;;;5.47;3.67;;;;;;;;;;5072235;28;20452;-57
2023/10/05 13:48:02;;;;;;;5.87;3.30;;;;;;;;;;5060816;28;20455;-55
2023/10/05 13:50:31;;;;;;;6.90;3.20;;;;;;;;;;5070385;28;20483;-55
2023/10/05 13:52:58;;;;;;;5.90;3.43;;;;;;;;;;5057847;28;20449;-55
2023/10/05 13:55:25;;;;;;;4.20;3.27;;;;;;;;;;5073554;28;20851;-56
2023/10/05 13:57:56;;;;;;;6.40;4.33;;;;;;;;;;5072544;28;20448;-56
2023/10/05 14:00:25;;;;;;;4.00;3.10;;;;;;;;;;5060168;28;20506;-56
2023/10/05 14:02:53;;;;;;;5.13;3.13;;;;;;;;;;5069604;28;21317;-56
2023/10/05 14:05:24;;;;;;;5.27;2.83;;;;;;;;;;5070285;28;20456;-55
2023/10/05 14:07:53;;;;;;;5.10;3.13;;;;;;;;;;5080203;28;20482;-56
2023/10/05 14:10:24;;;;;;;6.60;3.57;;;;;;;;;;5067160;28;20491;-55
2023/10/05 14:12:52;;;;;;;6.50;3.90;;;;;;;;;;5075158;28;20524;-56
2023/10/05 14:15:20;;;;;;;6.80;3.63;;;;;;;;;;5079303;28;20843;-56
2023/10/05 14:17:51;;;;;;;6.10;4.17;;;;;;;;;;5083242;28;20907;-55
2023/10/05 14:20:19;;;;;;;12.60;4.80;;;;;;;;;;5076303;28;20436;-55
2023/10/05 14:22:47;;;;;;;8.57;5.23;;;;;;;;;;5078653;28;20546;-57
2023/10/05 14:25:18;;;;;;;4.70;3.77;;;;;;;;;;5073949;28;20455;-56
2023/10/05 14:27:48;;;;;;;6.20;4.07;;;;;;;;;;5081471;28;20440;-55
2023/10/05 14:30:17;;;;;;;5.43;3.57;;;;;;;;;;5079383;28;21017;-56
2023/10/05 14:32:46;;;;;;;6.13;3.40;;;;;;;;;;5082590;28;20562;-56
2023/10/05 14:35:17;;;;;;;9.50;4.30;;;;;;;;;;5086168;28;20470;-56
2023/10/05 14:37:45;;;;;;;5.10;3.67;;;;;;;;;;5078619;28;20463;-55
2023/10/05 14:40:18;;;;;;;8.33;3.13;;;;;;;;;;5077190;28;20427;-55
2023/10/05 14:42:47;;;;;;;7.73;3.80;;;;;;;;;;5084101;28;20853;-55
2023/10/05 14:45:15;;;;;;;5.50;4.10;;;;;;;;;;5085826;28;20432;-55
2023/10/05 14:47:43;;;;;;;7.03;3.70;;;;;;;;;;5082365;28;20443;-55
2023/10/05 14:50:12;;;;;;;5.03;3.47;;;;;;;;;;5089887;28;20572;-55
2023/10/05 14:52:42;;;;;;;10.40;4.20;;;;;;;;;;5086191;28;20516;-56
2023/10/05 14:55:10;;;;;;;7.53;4.10;;;;;;;;;;5078558;28;21038;-56
2023/10/05 14:57:40;;;;;;;6.47;3.43;;;;;;;;;;5085275;28;20776;-55
2023/10/05 15:00:11;;;;;;;5.27;3.77;;;;;;;;;;5077707;28;20450;-56
2023/10/05 15:02:39;;;;;;;6.03;3.83;;;;;;;;;;5085526;28;20550;-56
2023/10/05 15:05:10;;;;;;;5.90;3.70;;;;;;;;;;5082112;28;20508;-56